Time;durP1;ratioP1;P1;durP2;ratioP2;P2;SDS_P1;SDS_P2;PMS_P1;PMS_P2;Temp;Humidity;BMP_temperature;BMP_pressure;BME280_temperature;BME280_humidity;BME280_pressure;Samples;Min_cycle;Max_cycle;Signal;HPM_P1;HPM_P2
2021/08/07 00:00:17;;;;;;;;;;;23.70;63.70;;;;;;5129188;27;19927;-59
2021/08/07 00:02:44;;;;;;;;;;;23.70;63.70;;;;;;5117947;27;19979;-60
2021/08/07 00:05:12;;;;;;;;;;;23.70;63.70;;;;;;5133677;27;19927;-60
2021/08/07 00:07:39;;;;;;;;;;;23.70;63.70;;;;;;5132720;27;20065;-60
2021/08/07 00:10:07;;;;;;;;;;;23.70;63.70;;;;;;5132433;27;19977;-60
2021/08/07 00:12:35;;;;;;;;;;;23.70;63.80;;;;;;5132561;28;20294;-60
2021/08/07 00:15:03;;;;;;;;;;;23.70;63.80;;;;;;5115638;28;20437;-59
2021/08/07 00:17:30;;;;;;;;;;;23.70;63.80;;;;;;5133139;28;19984;-60
2021/08/07 00:19:57;;;;;;;;;;;23.70;63.80;;;;;;5133591;28;19927;-59
2021/08/07 00:22:24;;;;;;;;;;;23.60;63.70;;;;;;5131242;28;19924;-60
2021/08/07 00:24:51;;;;;;;;;;;23.60;63.70;;;;;;5132255;28;19923;-60
2021/08/07 00:27:18;;;;;;;;;;;23.60;63.70;;;;;;5132343;28;19923;-60
2021/08/07 00:29:45;;;;;;;;;;;23.60;63.70;;;;;;5133355;28;19923;-61
2021/08/07 00:32:12;;;;;;;;;;;23.60;63.60;;;;;;5130769;28;20002;-59
2021/08/07 00:34:39;;;;;;;;;;;23.60;63.60;;;;;;5132008;28;20344;-60
2021/08/07 00:37:08;;;;;;;;;;;23.70;63.70;;;;;;5132231;28;20331;-60
2021/08/07 00:39:35;;;;;;;;;;;23.60;63.50;;;;;;5132175;28;19924;-60
2021/08/07 00:42:02;;;;;;;;;;;23.60;63.50;;;;;;5134985;27;19924;-59
2021/08/07 00:44:29;;;;;;;;;;;23.60;63.60;;;;;;5136596;27;19923;-59
2021/08/07 00:46:56;;;;;;;;;;;23.60;63.60;;;;;;5137216;27;19969;-60
2021/08/07 00:49:23;;;;;;;;;;;23.60;63.60;;;;;;5134994;27;19923;-59
2021/08/07 00:51:50;;;;;;;;;;;23.60;63.60;;;;;;5130810;27;20037;-60
2021/08/07 00:54:17;;;;;;;;;;;23.50;63.50;;;;;;5122817;27;20339;-59
2021/08/07 00:56:44;;;;;;;;;;;23.50;63.60;;;;;;5135823;27;19988;-60
2021/08/07 00:59:11;;;;;;;;;;;23.50;63.60;;;;;;5135730;27;19984;-59
2021/08/07 01:01:43;;;;;;;;;;;23.60;63.60;;;;;;5136109;27;19972;-59
2021/08/07 01:04:20;;;;;;;;;;;23.60;63.60;;;;;;5134402;27;19930;-60
2021/08/07 01:06:53;;;;;;;;;;;23.60;64.30;;;;;;5135660;27;19988;-59
2021/08/07 01:09:32;;;;;;;;;;;23.60;63.50;;;;;;5137232;27;19923;-59
2021/08/07 01:12:05;;;;;;;;;;;23.50;63.50;;;;;;5117544;27;19953;-59
2021/08/07 01:14:37;;;;;;;;;;;23.50;63.40;;;;;;5135692;27;19976;-60
2021/08/07 01:17:04;;;;;;;;;;;23.50;63.40;;;;;;5135440;27;20349;-59
2021/08/07 01:19:37;;;;;;;;;;;23.50;63.40;;;;;;5136802;27;20006;-60
2021/08/07 01:22:05;;;;;;;;;;;23.50;63.40;;;;;;5135727;27;19923;-60
2021/08/07 01:24:49;;;;;;;;;;;23.50;63.40;;;;;;5135918;27;19924;-59
2021/08/07 01:27:22;;;;;;;;;;;23.50;63.50;;;;;;5120161;27;20335;-60
2021/08/07 01:29:49;;;;;;;;;;;23.50;63.50;;;;;;5133886;27;19982;-60
2021/08/07 01:32:17;;;;;;;;;;;23.50;63.40;;;;;;5136472;27;19965;-60
2021/08/07 01:34:44;;;;;;;;;;;23.50;63.40;;;;;;5135341;27;20271;-59
2021/08/07 01:37:12;;;;;;;;;;;23.50;63.40;;;;;;5135406;27;19928;-59
2021/08/07 01:39:43;;;;;;;;;;;23.50;63.30;;;;;;5135861;27;19923;-60
2021/08/07 01:42:10;;;;;;;;;;;23.50;63.30;;;;;;5135048;27;19955;-59
2021/08/07 01:44:37;;;;;;;;;;;23.50;63.30;;;;;;5118381;27;19931;-60
2021/08/07 01:47:09;;;;;;;;;;;23.50;63.30;;;;;;5134454;27;20344;-61
2021/08/07 01:49:42;;;;;;;;;;;23.50;63.20;;;;;;5118832;27;19927;-61
2021/08/07 01:52:14;;;;;;;;;;;23.50;63.20;;;;;;5133663;27;20299;-60
2021/08/07 01:54:43;;;;;;;;;;;23.50;63.10;;;;;;5133889;27;19952;-59
2021/08/07 01:57:12;;;;;;;;;;;23.50;63.10;;;;;;5134205;27;19923;-60
2021/08/07 01:59:40;;;;;;;;;;;23.50;63.20;;;;;;5134642;27;19969;-59
2021/08/07 02:02:07;;;;;;;;;;;23.50;63.20;;;;;;5122778;27;19928;-60
2021/08/07 02:04:34;;;;;;;;;;;23.50;63.20;;;;;;5131380;27;20409;-60
2021/08/07 02:07:01;;;;;;;;;;;23.50;63.30;;;;;;5133418;27;20010;-60
2021/08/07 02:09:29;;;;;;;;;;;23.50;63.30;;;;;;5133407;27;19923;-60
2021/08/07 02:11:56;;;;;;;;;;;23.40;63.20;;;;;;5135559;27;19923;-59
2021/08/07 02:14:24;;;;;;;;;;;23.40;63.20;;;;;;5135593;27;20336;-59
2021/08/07 02:16:52;;;;;;;;;;;23.40;63.30;;;;;;5134430;27;20312;-60
2021/08/07 02:19:19;;;;;;;;;;;23.40;63.20;;;;;;5135525;27;20391;-59
2021/08/07 02:21:46;;;;;;;;;;;23.40;63.10;;;;;;5134745;27;19923;-60
2021/08/07 02:24:13;;;;;;;;;;;23.40;63.90;;;;;;5117303;27;20374;-60
2021/08/07 02:26:40;;;;;;;;;;;23.40;63.20;;;;;;5134463;27;19924;-60
2021/08/07 02:29:08;;;;;;;;;;;23.40;63.10;;;;;;5135159;27;19931;-60
2021/08/07 02:31:35;;;;;;;;;;;23.40;63.10;;;;;;5114635;27;20022;-60
2021/08/07 02:34:03;;;;;;;;;;;23.40;63.10;;;;;;5135284;27;19968;-60
2021/08/07 02:36:30;;;;;;;;;;;23.40;63.00;;;;;;5135267;27;19952;-59
2021/08/07 02:38:58;;;;;;;;;;;23.50;63.00;;;;;;5134062;27;19932;-60
2021/08/07 02:41:26;;;;;;;;;;;23.40;62.90;;;;;;5135110;27;19927;-60
2021/08/07 02:43:53;;;;;;;;;;;23.40;63.00;;;;;;5135009;27;19924;-59
2021/08/07 02:46:20;;;;;;;;;;;23.40;62.90;;;;;;5115874;27;20387;-60
2021/08/07 02:48:47;;;;;;;;;;;23.40;63.00;;;;;;5134272;27;20306;-60
2021/08/07 02:51:14;;;;;;;;;;;23.40;63.00;;;;;;5133542;27;20328;-60
2021/08/07 02:53:42;;;;;;;;;;;23.40;63.00;;;;;;5134897;27;20416;-60
2021/08/07 02:56:09;;;;;;;;;;;23.40;62.90;;;;;;5134907;27;19928;-60
2021/08/07 02:58:36;;;;;;;;;;;23.40;62.90;;;;;;5133436;27;19973;-60
2021/08/07 03:01:04;;;;;;;;;;;23.40;62.80;;;;;;5115314;27;19929;-60
2021/08/07 03:03:31;;;;;;;;;;;23.40;62.80;;;;;;5133537;27;19969;-59
2021/08/07 03:05:58;;;;;;;;;;;23.40;62.80;;;;;;5133431;27;20336;-59
2021/08/07 03:08:25;;;;;;;;;;;23.40;62.60;;;;;;5134758;27;19974;-60
2021/08/07 03:10:52;;;;;;;;;;;23.40;62.60;;;;;;5131734;27;19976;-60
2021/08/07 03:13:19;;;;;;;;;;;23.40;62.60;;;;;;5133164;27;20378;-61
2021/08/07 03:15:46;;;;;;;;;;;23.40;62.70;;;;;;5132852;27;20443;-60
2021/08/07 03:18:13;;;;;;;;;;;23.40;62.70;;;;;;5133200;27;19923;-60
2021/08/07 03:20:40;;;;;;;;;;;23.40;62.60;;;;;;5132514;27;19924;-61
2021/08/07 03:23:08;;;;;;;;;;;23.40;62.70;;;;;;5132878;27;20298;-59
2021/08/07 03:25:35;;;;;;;;;;;23.40;62.70;;;;;;5133390;27;20434;-60
2021/08/07 03:28:02;;;;;;;;;;;23.30;62.60;;;;;;5134172;27;19967;-59
2021/08/07 03:30:29;;;;;;;;;;;23.30;62.60;;;;;;5133981;27;19923;-60
2021/08/07 03:32:56;;;;;;;;;;;23.30;62.60;;;;;;5134436;27;20295;-60
2021/08/07 03:35:24;;;;;;;;;;;23.40;62.60;;;;;;5132767;27;19924;-59
2021/08/07 03:37:53;;;;;;;;;;;23.40;62.70;;;;;;5114501;27;19924;-60
2021/08/07 03:40:20;;;;;;;;;;;23.30;62.50;;;;;;5114911;27;19967;-59
2021/08/07 03:42:47;;;;;;;;;;;23.40;62.60;;;;;;5133573;27;19968;-61
2021/08/07 03:45:14;;;;;;;;;;;23.40;62.50;;;;;;5116047;27;19969;-60
2021/08/07 03:47:51;;;;;;;;;;;23.40;62.60;;;;;;5131985;27;19924;-59
2021/08/07 03:50:20;;;;;;;;;;;23.40;62.50;;;;;;5115481;27;19931;-60
2021/08/07 03:52:47;;;;;;;;;;;23.40;63.40;;;;;;5132977;27;19978;-60
2021/08/07 03:55:14;;;;;;;;;;;23.40;62.60;;;;;;5115270;27;20388;-60
2021/08/07 03:58:07;;;;;;;;;;;23.40;62.60;;;;;;5133439;27;19923;-59
2021/08/07 04:00:35;;;;;;;;;;;23.40;62.60;;;;;;5130062;27;19970;-60
2021/08/07 04:03:02;;;;;;;;;;;23.40;62.60;;;;;;5116300;27;19931;-59
2021/08/07 04:05:30;;;;;;;;;;;23.40;62.60;;;;;;5129069;27;19931;-59
2021/08/07 04:08:03;;;;;;;;;;;23.40;62.60;;;;;;5132343;27;20034;-59
2021/08/07 04:10:31;;;;;;;;;;;23.40;62.60;;;;;;5131444;27;19923;-59
2021/08/07 04:12:58;;;;;;;;;;;23.40;62.50;;;;;;5131921;27;19972;-60
2021/08/07 04:15:25;;;;;;;;;;;23.40;63.10;;;;;;5133675;28;20276;-59
2021/08/07 04:17:52;;;;;;;;;;;23.40;62.30;;;;;;5138988;27;19930;-59
2021/08/07 04:20:20;;;;;;;;;;;23.40;62.30;;;;;;5137786;27;19930;-59
2021/08/07 04:22:47;;;;;;;;;;;23.40;62.30;;;;;;5133740;27;19923;-59
2021/08/07 04:25:14;;;;;;;;;;;23.50;62.40;;;;;;5131423;27;19985;-60
2021/08/07 04:27:41;;;;;;;;;;;23.40;62.80;;;;;;5112206;27;19923;-60
2021/08/07 04:30:08;;;;;;;;;;;23.50;62.20;;;;;;5138999;27;19924;-60
2021/08/07 04:32:36;;;;;;;;;;;23.50;62.20;;;;;;5134898;27;19931;-59
2021/08/07 04:35:04;;;;;;;;;;;23.40;62.10;;;;;;5124947;27;19923;-60
2021/08/07 04:37:30;;;;;;;;;;;23.40;62.10;;;;;;5140386;27;19923;-60
2021/08/07 04:39:57;;;;;;;;;;;23.40;62.10;;;;;;5140095;27;19924;-60
2021/08/07 04:42:24;;;;;;;;;;;23.40;62.10;;;;;;5139383;27;19972;-59
2021/08/07 04:44:51;;;;;;;;;;;23.40;62.10;;;;;;5138814;27;19958;-58
2021/08/07 04:47:18;;;;;;;;;;;23.40;62.00;;;;;;5140244;27;19977;-60
2021/08/07 04:49:45;;;;;;;;;;;23.50;62.20;;;;;;5140089;27;19935;-60
2021/08/07 04:52:12;;;;;;;;;;;23.50;62.10;;;;;;5140073;27;19977;-59
2021/08/07 04:54:39;;;;;;;;;;;23.50;62.10;;;;;;5139048;27;19985;-59
2021/08/07 04:57:06;;;;;;;;;;;23.50;62.10;;;;;;5137741;27;20307;-60
2021/08/07 04:59:33;;;;;;;;;;;23.50;62.00;;;;;;5139020;27;19946;-60
2021/08/07 05:02:02;;;;;;;;;;;23.50;62.70;;;;;;5137824;27;20470;-59
2021/08/07 05:04:29;;;;;;;;;;;23.50;62.00;;;;;;5139207;27;19924;-59
2021/08/07 05:06:56;;;;;;;;;;;23.50;61.90;;;;;;5120689;27;19996;-60
2021/08/07 05:09:23;;;;;;;;;;;23.50;61.70;;;;;;5138403;27;19995;-59
2021/08/07 05:11:50;;;;;;;;;;;23.60;61.70;;;;;;5139711;27;19970;-59
2021/08/07 05:14:17;;;;;;;;;;;23.60;61.60;;;;;;5139768;27;20009;-59
2021/08/07 05:16:44;;;;;;;;;;;23.70;61.60;;;;;;5138543;27;19954;-60
2021/08/07 05:19:11;;;;;;;;;;;23.70;61.50;;;;;;5130129;27;19972;-60
2021/08/07 05:21:38;;;;;;;;;;;23.70;61.30;;;;;;5111947;27;20271;-59
2021/08/07 05:24:05;;;;;;;;;;;23.80;61.40;;;;;;5133478;27;19962;-60
2021/08/07 05:26:32;;;;;;;;;;;23.80;61.20;;;;;;5126700;27;19972;-60
2021/08/07 05:28:59;;;;;;;;;;;23.80;61.10;;;;;;5135118;27;19930;-60
2021/08/07 05:31:26;;;;;;;;;;;23.90;61.10;;;;;;5135156;27;20328;-59
2021/08/07 05:33:53;;;;;;;;;;;23.90;61.10;;;;;;5131854;27;19923;-59
2021/08/07 05:36:20;;;;;;;;;;;23.90;61.00;;;;;;5119679;27;19984;-59
2021/08/07 05:38:47;;;;;;;;;;;23.90;60.80;;;;;;5133807;27;19931;-59
2021/08/07 05:41:14;;;;;;;;;;;23.90;60.90;;;;;;5133673;27;20292;-59
2021/08/07 05:43:41;;;;;;;;;;;23.90;60.80;;;;;;5135866;27;20375;-60
2021/08/07 05:46:08;;;;;;;;;;;24.00;60.80;;;;;;5135146;27;19931;-59
2021/08/07 05:48:35;;;;;;;;;;;24.00;60.70;;;;;;5134881;27;20295;-59
2021/08/07 05:51:02;;;;;;;;;;;24.00;60.60;;;;;;5134944;27;19968;-59
2021/08/07 05:53:29;;;;;;;;;;;24.00;60.50;;;;;;5134972;27;20298;-60
2021/08/07 05:55:56;;;;;;;;;;;24.00;60.40;;;;;;5134426;27;19953;-59
2021/08/07 05:58:23;;;;;;;;;;;24.10;60.40;;;;;;5135792;27;20335;-59
2021/08/07 06:00:51;;;;;;;;;;;24.10;60.40;;;;;;5134847;27;19959;-60
2021/08/07 06:03:18;;;;;;;;;;;24.10;60.30;;;;;;5134252;27;19923;-61
2021/08/07 06:05:46;;;;;;;;;;;24.10;60.10;;;;;;5134230;27;20347;-59
2021/08/07 06:08:12;;;;;;;;;;;24.10;60.20;;;;;;5134386;27;20010;-59
2021/08/07 06:10:40;;;;;;;;;;;24.10;60.10;;;;;;5134105;27;19991;-60
2021/08/07 06:13:07;;;;;;;;;;;24.20;60.30;;;;;;5134181;27;19966;-61
2021/08/07 06:15:34;;;;;;;;;;;24.10;60.10;;;;;;5135328;27;19924;-60
2021/08/07 06:18:01;;;;;;;;;;;24.20;60.20;;;;;;5135563;27;19950;-60
2021/08/07 06:20:28;;;;;;;;;;;24.20;60.20;;;;;;5132958;27;20402;-60
2021/08/07 06:22:55;;;;;;;;;;;24.20;60.30;;;;;;5117310;27;19928;-60
2021/08/07 06:25:23;;;;;;;;;;;24.20;60.10;;;;;;5120008;27;19977;-62
2021/08/07 06:27:53;;;;;;;;;;;24.20;60.10;;;;;;5134099;27;19923;-59
2021/08/07 06:30:21;;;;;;;;;;;24.20;60.20;;;;;;5132830;27;19924;-60
2021/08/07 06:32:48;;;;;;;;;;;24.30;60.40;;;;;;5132162;27;19923;-60
2021/08/07 06:35:16;;;;;;;;;;;24.30;60.30;;;;;;5133739;27;20357;-60
2021/08/07 06:37:43;;;;;;;;;;;24.30;60.10;;;;;;5098040;27;20022;-59
2021/08/07 06:40:10;;;;;;;;;;;24.40;60.20;;;;;;5115475;27;19923;-60
2021/08/07 06:42:37;;;;;;;;;;;24.40;60.10;;;;;;5133821;27;19924;-59
2021/08/07 06:45:05;;;;;;;;;;;24.40;60.00;;;;;;5135010;27;19923;-59
2021/08/07 06:47:32;;;;;;;;;;;24.50;60.10;;;;;;5135018;27;19923;-60
2021/08/07 06:49:58;;;;;;;;;;;24.50;60.20;;;;;;5133573;27;19988;-60
2021/08/07 06:52:25;;;;;;;;;;;24.50;60.30;;;;;;5134855;27;20358;-60
2021/08/07 06:54:52;;;;;;;;;;;24.50;60.20;;;;;;5133698;27;20340;-61
2021/08/07 06:57:20;;;;;;;;;;;24.60;60.20;;;;;;5134170;27;19924;-60
2021/08/07 06:59:47;;;;;;;;;;;24.60;60.10;;;;;;5133320;27;19952;-60
2021/08/07 07:02:14;;;;;;;;;;;24.60;60.00;;;;;;5134608;27;19931;-60
2021/08/07 07:04:42;;;;;;;;;;;24.70;60.10;;;;;;5131671;27;20371;-60
2021/08/07 07:07:09;;;;;;;;;;;24.70;60.00;;;;;;5124551;27;19955;-60
2021/08/07 07:09:36;;;;;;;;;;;24.70;60.10;;;;;;5117392;27;19930;-60
2021/08/07 07:12:03;;;;;;;;;;;24.80;59.90;;;;;;5125647;27;19924;-60
2021/08/07 07:14:30;;;;;;;;;;;24.80;60.10;;;;;;5131833;27;20314;-60
2021/08/07 07:16:57;;;;;;;;;;;24.80;60.00;;;;;;5131702;27;19931;-60
2021/08/07 07:19:27;;;;;;;;;;;24.80;60.00;;;;;;5132039;27;20047;-60
2021/08/07 07:21:54;;;;;;;;;;;24.90;60.10;;;;;;5129721;27;19924;-60
2021/08/07 07:24:21;;;;;;;;;;;24.90;60.30;;;;;;5131945;27;19968;-59
2021/08/07 07:26:48;;;;;;;;;;;24.80;60.50;;;;;;5131556;27;19928;-60
2021/08/07 07:29:15;;;;;;;;;;;24.80;60.50;;;;;;5114585;27;19927;-59
2021/08/07 07:31:42;;;;;;;;;;;24.80;60.50;;;;;;5131193;27;19959;-60
2021/08/07 07:34:09;;;;;;;;;;;24.80;60.40;;;;;;5133718;27;19930;-60
2021/08/07 07:36:36;;;;;;;;;;;24.80;60.40;;;;;;5134203;27;19968;-59
2021/08/07 07:39:03;;;;;;;;;;;24.90;60.40;;;;;;5115975;27;20320;-59
2021/08/07 07:41:31;;;;;;;;;;;24.90;60.50;;;;;;5132744;27;19923;-60
2021/08/07 07:43:58;;;;;;;;;;;24.90;60.60;;;;;;5132913;27;19930;-60
2021/08/07 07:46:25;;;;;;;;;;;24.90;60.50;;;;;;5132387;27;19923;-60
2021/08/07 07:48:52;;;;;;;;;;;24.90;60.90;;;;;;5132636;27;19923;-60
2021/08/07 07:51:19;;;;;;;;;;;24.90;61.20;;;;;;5131803;27;19962;-60
2021/08/07 07:53:45;;;;;;;;;;;24.90;60.90;;;;;;5132228;27;20446;-60
2021/08/07 07:56:12;;;;;;;;;;;24.90;61.00;;;;;;5133103;27;19953;-60
2021/08/07 07:58:39;;;;;;;;;;;24.80;61.10;;;;;;5114999;27;19988;-60
2021/08/07 08:01:06;;;;;;;;;;;24.80;60.90;;;;;;5123143;27;19928;-60
2021/08/07 08:03:34;;;;;;;;;;;24.90;61.10;;;;;;5114932;27;19923;-59
2021/08/07 08:06:02;;;;;;;;;;;24.90;60.90;;;;;;5099086;28;19950;-59
2021/08/07 08:08:29;;;;;;;;;;;24.90;60.90;;;;;;5124477;27;19927;-59
2021/08/07 08:10:56;;;;;;;;;;;24.90;60.80;;;;;;5131886;27;19973;-59
2021/08/07 08:13:23;;;;;;;;;;;24.90;60.70;;;;;;5132079;27;20290;-59
2021/08/07 08:15:50;;;;;;;;;;;24.90;60.50;;;;;;5128526;28;19924;-60
2021/08/07 08:18:17;;;;;;;;;;;24.90;60.40;;;;;;5118839;28;19934;-60
2021/08/07 08:20:44;;;;;;;;;;;24.90;60.20;;;;;;5132650;28;19988;-61
2021/08/07 08:23:11;;;;;;;;;;;24.90;60.40;;;;;;5133100;28;20304;-59
2021/08/07 08:25:38;;;;;;;;;;;24.90;60.30;;;;;;5114914;28;19927;-60
2021/08/07 08:28:05;;;;;;;;;;;24.90;60.10;;;;;;5133618;28;19923;-60
2021/08/07 08:30:32;;;;;;;;;;;24.90;60.10;;;;;;5113852;28;19923;-59
2021/08/07 08:32:59;;;;;;;;;;;24.90;60.10;;;;;;5132447;28;19927;-59
2021/08/07 08:35:26;;;;;;;;;;;24.90;60.20;;;;;;5133478;28;20352;-59
2021/08/07 08:37:53;;;;;;;;;;;25.00;60.10;;;;;;5133167;28;19991;-59
2021/08/07 08:40:20;;;;;;;;;;;24.90;60.00;;;;;;5130398;28;19924;-60
2021/08/07 08:42:47;;;;;;;;;;;24.90;59.70;;;;;;5112291;28;19976;-60
2021/08/07 08:45:14;;;;;;;;;;;24.90;60.10;;;;;;5133136;28;19966;-60
2021/08/07 08:47:42;;;;;;;;;;;24.90;60.20;;;;;;5131627;28;19972;-59
2021/08/07 08:50:10;;;;;;;;;;;24.90;60.10;;;;;;5132127;28;19976;-60
2021/08/07 08:52:38;;;;;;;;;;;25.00;60.20;;;;;;5120882;28;20068;-60
2021/08/07 08:55:06;;;;;;;;;;;25.00;60.20;;;;;;5124634;28;19988;-60
2021/08/07 08:57:34;;;;;;;;;;;25.00;60.20;;;;;;5121807;28;19923;-60
2021/08/07 09:00:03;;;;;;;;;;;25.00;60.20;;;;;;5125228;28;19927;-59
2021/08/07 09:02:30;;;;;;;;;;;25.00;60.00;;;;;;5123954;28;19931;-59
2021/08/07 09:04:57;;;;;;;;;;;25.00;60.00;;;;;;5125172;27;19927;-60
2021/08/07 09:07:24;;;;;;;;;;;25.00;60.00;;;;;;5135557;27;19924;-60
2021/08/07 09:09:55;;;;;;;;;;;25.00;60.00;;;;;;5134514;27;19927;-60
2021/08/07 09:12:42;;;;;;;;;;;25.00;60.00;;;;;;5136326;27;19980;-60
2021/08/07 09:15:27;;;;;;;;;;;25.10;60.00;;;;;;5135761;27;19923;-60
2021/08/07 09:18:09;;;;;;;;;;;25.10;60.00;;;;;;5135592;27;19923;-60
2021/08/07 09:20:37;;;;;;;;;;;25.10;60.00;;;;;;5136839;27;19961;-59
2021/08/07 09:23:04;;;;;;;;;;;25.10;59.90;;;;;;5135221;27;20254;-60
2021/08/07 09:25:34;;;;;;;;;;;25.10;59.90;;;;;;5135101;27;19968;-59
2021/08/07 09:28:01;;;;;;;;;;;25.20;59.90;;;;;;5133641;27;19969;-60
2021/08/07 09:30:30;;;;;;;;;;;25.20;60.00;;;;;;5135077;27;19924;-59
2021/08/07 09:33:00;;;;;;;;;;;25.20;59.90;;;;;;5135194;27;19931;-60
2021/08/07 09:35:34;;;;;;;;;;;25.20;59.90;;;;;;5135498;27;19968;-60
2021/08/07 09:38:04;;;;;;;;;;;25.20;59.90;;;;;;5134624;27;20006;-59
2021/08/07 09:40:40;;;;;;;;;;;25.20;59.90;;;;;;5134523;27;20375;-60
2021/08/07 09:43:07;;;;;;;;;;;25.20;59.90;;;;;;5134510;27;19956;-61
2021/08/07 09:45:35;;;;;;;;;;;25.20;59.90;;;;;;5117454;27;20371;-60
2021/08/07 09:48:12;;;;;;;;;;;25.20;59.90;;;;;;5135785;27;19931;-60
2021/08/07 09:50:40;;;;;;;;;;;25.20;59.90;;;;;;5135637;27;19953;-60
2021/08/07 09:53:18;;;;;;;;;;;25.20;59.80;;;;;;5134032;27;19968;-60
2021/08/07 09:55:58;;;;;;;;;;;25.20;59.70;;;;;;5132299;27;19924;-60
2021/08/07 09:58:26;;;;;;;;;;;25.30;59.80;;;;;;5123017;27;20304;-60
2021/08/07 10:00:52;;;;;;;;;;;25.30;59.60;;;;;;5136084;27;19924;-60
2021/08/07 10:03:21;;;;;;;;;;;25.30;59.60;;;;;;5134659;27;20014;-60
2021/08/07 10:05:49;;;;;;;;;;;25.30;59.30;;;;;;5132998;27;19953;-60
2021/08/07 10:08:16;;;;;;;;;;;25.30;59.20;;;;;;5134356;27;19928;-60
2021/08/07 10:10:45;;;;;;;;;;;25.30;59.10;;;;;;5135470;27;19928;-60
2021/08/07 10:13:12;;;;;;;;;;;25.30;59.00;;;;;;5115793;27;19924;-60
2021/08/07 10:15:40;;;;;;;;;;;25.30;59.00;;;;;;5134234;27;19930;-60
2021/08/07 10:18:08;;;;;;;;;;;25.30;59.00;;;;;;5134421;27;20344;-60
2021/08/07 10:20:37;;;;;;;;;;;25.40;59.10;;;;;;5117515;27;20276;-60
2021/08/07 10:23:04;;;;;;;;;;;25.30;59.00;;;;;;5133604;27;20002;-59
2021/08/07 10:25:32;;;;;;;;;;;25.30;59.10;;;;;;5135593;27;19930;-60
2021/08/07 10:28:01;;;;;;;;;;;25.40;59.20;;;;;;5134071;27;19930;-60
2021/08/07 10:30:29;;;;;;;;;;;25.40;59.30;;;;;;5132261;27;19932;-60
2021/08/07 10:32:57;;;;;;;;;;;25.40;59.30;;;;;;5135100;27;20286;-60
2021/08/07 10:35:26;;;;;;;;;;;25.40;59.30;;;;;;5133831;27;19928;-60
2021/08/07 10:37:57;;;;;;;;;;;25.40;59.40;;;;;;5135299;27;19924;-60
2021/08/07 10:40:24;;;;;;;;;;;25.40;59.50;;;;;;5121455;27;20003;-59
2021/08/07 10:42:52;;;;;;;;;;;25.40;59.50;;;;;;5126279;27;19923;-61
2021/08/07 10:45:21;;;;;;;;;;;25.40;59.60;;;;;;5123294;27;20401;-60
2021/08/07 10:47:49;;;;;;;;;;;25.50;59.60;;;;;;5126956;27;19928;-61
2021/08/07 10:50:28;;;;;;;;;;;25.40;59.50;;;;;;5108132;28;20411;-60
2021/08/07 10:52:57;;;;;;;;;;;25.40;59.50;;;;;;5125472;27;20047;-61
2021/08/07 10:55:43;;;;;;;;;;;25.40;59.60;;;;;;5134487;27;19927;-59
2021/08/07 10:58:29;;;;;;;;;;;25.50;59.60;;;;;;5133478;27;20426;-61
2021/08/07 11:01:15;;;;;;;;;;;25.50;59.70;;;;;;5133478;27;19928;-61
2021/08/07 11:03:43;;;;;;;;;;;25.50;59.80;;;;;;5134533;27;19937;-60
2021/08/07 11:06:10;;;;;;;;;;;25.50;59.90;;;;;;5133460;27;19930;-60
2021/08/07 11:08:37;;;;;;;;;;;25.50;59.80;;;;;;5115585;27;19930;-58
2021/08/07 11:11:22;;;;;;;;;;;25.50;59.90;;;;;;5131992;27;19927;-60
2021/08/07 11:13:49;;;;;;;;;;;25.50;59.90;;;;;;5133507;27;19965;-60
2021/08/07 11:16:18;;;;;;;;;;;25.50;60.00;;;;;;5132268;27;19934;-59
2021/08/07 11:18:45;;;;;;;;;;;25.50;60.00;;;;;;5133204;27;20463;-59
2021/08/07 11:21:31;;;;;;;;;;;25.60;60.30;;;;;;5131999;27;19930;-60
2021/08/07 11:23:58;;;;;;;;;;;25.50;60.20;;;;;;5132215;27;19940;-60
2021/08/07 11:26:44;;;;;;;;;;;25.60;60.40;;;;;;5096096;27;19946;-59
2021/08/07 11:29:11;;;;;;;;;;;25.60;60.40;;;;;;5134094;27;19923;-59
2021/08/07 11:31:38;;;;;;;;;;;25.60;60.50;;;;;;5134051;27;19927;-60
2021/08/07 11:34:22;;;;;;;;;;;25.60;60.50;;;;;;5134189;27;20049;-59
2021/08/07 11:37:07;;;;;;;;;;;25.60;60.60;;;;;;5122661;27;19973;-60
2021/08/07 11:39:57;;;;;;;;;;;25.60;60.20;;;;;;5128980;27;19924;-60
2021/08/07 11:42:35;;;;;;;;;;;25.60;60.50;;;;;;5133282;27;19989;-60
2021/08/07 11:45:02;;;;;;;;;;;25.60;60.50;;;;;;5132834;27;20328;-60
2021/08/07 11:47:30;;;;;;;;;;;25.60;60.50;;;;;;5133806;27;19923;-60
2021/08/07 11:49:57;;;;;;;;;;;25.60;60.40;;;;;;5134220;27;20287;-60
2021/08/07 11:52:30;;;;;;;;;;;25.60;60.80;;;;;;5134053;27;20324;-60
2021/08/07 11:54:58;;;;;;;;;;;25.60;60.90;;;;;;5131274;27;20382;-61
2021/08/07 11:57:25;;;;;;;;;;;25.60;60.70;;;;;;5133422;27;19970;-60
2021/08/07 11:59:52;;;;;;;;;;;25.60;60.50;;;;;;5114342;27;19923;-60
2021/08/07 12:02:19;;;;;;;;;;;25.60;60.80;;;;;;5114029;27;19945;-60
2021/08/07 12:05:06;;;;;;;;;;;25.70;61.20;;;;;;5133542;27;19924;-60
2021/08/07 12:07:33;;;;;;;;;;;25.70;61.40;;;;;;5131795;27;19924;-60
2021/08/07 12:10:04;;;;;;;;;;;25.70;61.70;;;;;;5113963;28;20371;-60
2021/08/07 12:12:31;;;;;;;;;;;25.70;62.00;;;;;;5132709;27;19923;-60
2021/08/07 12:15:08;;;;;;;;;;;25.70;62.40;;;;;;5132529;27;20303;-60
2021/08/07 12:17:43;;;;;;;;;;;25.70;62.10;;;;;;5132101;28;19923;-61
2021/08/07 12:20:10;;;;;;;;;;;25.70;62.00;;;;;;5132668;28;19953;-60
2021/08/07 12:22:53;;;;;;;;;;;25.70;62.40;;;;;;5133601;28;19935;-60
2021/08/07 12:25:20;;;;;;;;;;;25.70;62.00;;;;;;5131839;28;19923;-60
2021/08/07 12:28:04;;;;;;;;;;;25.70;62.10;;;;;;5123598;28;20399;-60
2021/08/07 12:30:32;;;;;;;;;;;25.70;61.80;;;;;;5126215;28;19923;-60
2021/08/07 12:33:15;;;;;;;;;;;25.70;61.70;;;;;;5131913;28;19927;-60
2021/08/07 12:35:42;;;;;;;;;;;25.70;62.30;;;;;;5131795;28;20017;-60
2021/08/07 12:38:11;;;;;;;;;;;25.70;62.70;;;;;;5126588;27;19930;-60
2021/08/07 12:40:38;;;;;;;;;;;25.70;62.90;;;;;;5126816;27;19927;-60
2021/08/07 12:43:05;;;;;;;;;;;25.80;63.40;;;;;;5136198;27;19969;-60
2021/08/07 12:45:32;;;;;;;;;;;25.80;63.50;;;;;;5137339;27;19972;-60
2021/08/07 12:47:59;;;;;;;;;;;25.80;63.40;;;;;;5130734;27;19953;-60
2021/08/07 12:50:26;;;;;;;;;;;25.80;63.60;;;;;;5104214;27;20038;-60
2021/08/07 12:52:57;;;;;;;;;;;25.80;63.80;;;;;;5135906;27;19923;-60
2021/08/07 12:55:26;;;;;;;;;;;25.80;63.30;;;;;;5132850;27;20375;-60
2021/08/07 12:58:12;;;;;;;;;;;25.80;63.30;;;;;;5121275;27;19924;-60
2021/08/07 13:00:39;;;;;;;;;;;25.80;63.30;;;;;;5133481;27;19924;-59
2021/08/07 13:03:07;;;;;;;;;;;25.80;64.50;;;;;;5135983;27;19931;-60
2021/08/07 13:05:37;;;;;;;;;;;25.80;63.60;;;;;;5136012;27;20372;-60
2021/08/07 13:08:22;;;;;;;;;;;25.80;63.10;;;;;;5137269;27;20281;-60
2021/08/07 13:10:49;;;;;;;;;;;25.80;63.40;;;;;;5119019;27;19923;-59
2021/08/07 13:13:35;;;;;;;;;;;25.80;62.90;;;;;;5136701;27;19936;-60
2021/08/07 13:16:02;;;;;;;;;;;25.80;62.70;;;;;;5136775;27;20329;-60
2021/08/07 13:18:29;;;;;;;;;;;25.80;63.00;;;;;;5135331;27;20409;-60
2021/08/07 13:20:56;;;;;;;;;;;25.90;63.30;;;;;;5136586;27;19951;-59
2021/08/07 13:23:32;;;;;;;;;;;25.80;64.30;;;;;;5136625;27;19973;-60
2021/08/07 13:26:17;;;;;;;;;;;25.90;64.40;;;;;;5136648;27;19930;-60
2021/08/07 13:28:44;;;;;;;;;;;25.90;64.20;;;;;;5132309;27;19923;-60
2021/08/07 13:31:11;;;;;;;;;;;25.90;64.20;;;;;;5120627;27;19943;-61
2021/08/07 13:33:38;;;;;;;;;;;25.90;64.50;;;;;;5135708;27;20282;-60
2021/08/07 13:36:05;;;;;;;;;;;25.90;64.70;;;;;;5118827;27;20026;-61
2021/08/07 13:38:33;;;;;;;;;;;25.90;63.50;;;;;;5118844;27;19923;-60
2021/08/07 13:41:10;;;;;;;;;;;25.90;64.10;;;;;;5135621;27;19951;-61
2021/08/07 13:43:38;;;;;;;;;;;25.90;63.90;;;;;;5134560;27;19924;-60
2021/08/07 13:46:06;;;;;;;;;;;25.90;65.00;;;;;;5136809;27;19923;-60
2021/08/07 13:48:34;;;;;;;;;;;25.90;65.20;;;;;;5134594;27;19930;-61
2021/08/07 13:51:01;;;;;;;;;;;25.90;65.20;;;;;;5135467;27;19924;-60
2021/08/07 13:53:28;;;;;;;;;;;25.90;65.40;;;;;;5135204;27;19927;-61
2021/08/07 13:55:55;;;;;;;;;;;25.90;65.20;;;;;;5135755;27;20371;-60
2021/08/07 13:58:22;;;;;;;;;;;26.00;65.90;;;;;;5120113;27;19924;-61
2021/08/07 14:00:49;;;;;;;;;;;26.00;65.40;;;;;;5130339;27;19960;-60
2021/08/07 14:03:19;;;;;;;;;;;26.00;65.40;;;;;;5135713;27;20447;-60
2021/08/07 14:05:46;;;;;;;;;;;26.00;65.20;;;;;;5135865;27;19923;-60
2021/08/07 14:08:13;;;;;;;;;;;26.00;65.40;;;;;;5135696;27;19923;-60
2021/08/07 14:10:40;;;;;;;;;;;26.10;65.10;;;;;;5107875;28;19938;-59
2021/08/07 14:13:07;;;;;;;;;;;26.10;65.20;;;;;;5109858;27;19923;-60
2021/08/07 14:15:34;;;;;;;;;;;26.10;64.40;;;;;;5134380;27;20002;-60
2021/08/07 14:18:05;;;;;;;;;;;26.10;64.70;;;;;;5134248;27;19973;-60
2021/08/07 14:20:32;;;;;;;;;;;26.10;65.30;;;;;;5135657;27;19923;-60
2021/08/07 14:22:59;;;;;;;;;;;26.10;65.30;;;;;;5134365;27;19931;-60
2021/08/07 14:25:26;;;;;;;;;;;26.20;65.70;;;;;;5134585;27;19924;-61